createdAt,value
2023-07-24T00:00:18.553Z,97690.97
2023-07-24T00:01:19.986Z,97715.16
2023-07-24T00:02:21.390Z,97720.53
2023-07-24T00:03:22.809Z,97724.38
2023-07-24T00:04:24.181Z,97728.97
2023-07-24T00:05:25.615Z,97723.19
2023-07-24T00:06:27.142Z,97716.66
2023-07-24T00:07:28.628Z,97717.81
2023-07-24T00:08:30.023Z,97710.50
2023-07-24T00:09:31.381Z,97697.09
2023-07-24T00:10:32.755Z,97676.78
2023-07-24T00:11:34.109Z,97677.94
2023-07-24T00:12:35.494Z,97671.03
2023-07-24T00:13:36.860Z,97666.03
2023-07-24T00:14:38.212Z,97660.25
2023-07-24T00:15:39.960Z,97661.03
2023-07-24T00:16:41.317Z,97666.78
2023-07-24T00:17:42.745Z,97652.97
2023-07-24T00:18:44.145Z,97665.63
2023-07-24T00:19:45.498Z,97666.41
2023-07-24T00:20:46.839Z,97679.88
2023-07-24T00:21:48.294Z,97681.75
2023-07-24T00:22:49.637Z,97666.00
2023-07-24T00:23:51.094Z,97671.38
2023-07-24T00:24:52.549Z,97672.16
2023-07-24T00:25:53.963Z,97662.16
2023-07-24T00:26:55.308Z,97664.47
2023-07-24T00:27:56.649Z,97669.47
2023-07-24T00:28:57.996Z,97663.28
2023-07-24T00:29:59.345Z,97660.25
2023-07-24T00:31:00.724Z,97657.56
2023-07-24T00:32:02.132Z,97659.47
2023-07-24T00:33:03.623Z,97662.53
2023-07-24T00:34:04.981Z,97664.44
2023-07-24T00:35:07.031Z,97657.88
2023-07-24T00:36:08.389Z,97663.66
2023-07-24T00:37:09.730Z,97651.34
2023-07-24T00:38:11.079Z,97648.25
2023-07-24T00:39:14.666Z,97647.84
2023-07-24T00:40:16.040Z,97649.03
2023-07-24T00:41:17.362Z,97655.13
2023-07-24T00:42:18.715Z,97650.91
2023-07-24T00:43:23.225Z,97648.59
2023-07-24T00:44:24.638Z,97640.50
2023-07-24T00:45:26.172Z,97647.44
2023-07-24T00:46:29.329Z,97648.59
2023-07-24T00:47:30.954Z,97645.50
2023-07-24T00:48:32.321Z,97654.34
2023-07-24T00:49:33.873Z,97640.91
2023-07-24T00:50:36.917Z,97642.84
2023-07-24T00:51:38.366Z,97647.41
2023-07-24T00:52:40.282Z,97637.06
2023-07-24T00:53:41.692Z,97636.31
2023-07-24T00:54:44.685Z,97637.47
2023-07-24T00:55:48.585Z,97632.84
2023-07-24T00:56:50.299Z,97633.56
2023-07-24T00:57:52.762Z,97634.38
2023-07-24T00:58:55.451Z,97624.78
2023-07-24T00:59:57.048Z,97632.44
2023-07-24T01:00:58.819Z,97620.94
2023-07-24T01:02:00.558Z,97622.44
2023-07-24T01:03:02.014Z,97631.28
2023-07-24T01:04:05.290Z,97628.56
2023-07-24T01:05:08.787Z,97623.97
2023-07-24T01:06:10.905Z,97616.69
2023-07-24T01:07:13.109Z,97622.06
2023-07-24T01:08:14.957Z,97615.16
2023-07-24T01:09:16.336Z,97607.09
2023-07-24T01:10:18.636Z,97615.53
2023-07-24T01:11:25.610Z,97602.88
2023-07-24T01:12:37.229Z,97596.34
2023-07-24T01:13:43.222Z,97599.00
2023-07-24T01:14:53.394Z,97599.38
2023-07-24T01:16:20.786Z,97588.25
2023-07-24T01:17:25.627Z,97599.34
2023-07-24T01:18:30.858Z,97596.28
2023-07-24T01:19:32.175Z,97593.56
2023-07-24T01:20:36.815Z,97592.38
2023-07-24T01:21:59.385Z,97600.75
2023-07-24T01:23:22.127Z,97601.13
2023-07-24T01:25:07.849Z,97600.38
2023-07-24T01:26:09.578Z,97598.13
2023-07-24T01:27:10.936Z,97591.19
2023-07-24T01:28:12.311Z,97594.31
2023-07-24T01:29:14.094Z,97599.25
2023-07-24T01:30:19.478Z,97596.94
2023-07-24T01:31:22.170Z,97593.84
2023-07-24T01:32:23.601Z,97590.78
2023-07-24T01:33:25.871Z,97590.75
2023-07-24T01:34:27.299Z,97586.53
2023-07-24T01:35:29.916Z,97589.97
2023-07-24T01:36:31.734Z,97583.06
2023-07-24T01:37:36.446Z,97580.41
2023-07-24T01:38:39.458Z,97591.88
2023-07-24T01:39:45.182Z,97586.94
2023-07-24T01:40:46.877Z,97591.16
2023-07-24T01:41:48.466Z,97591.88
2023-07-24T01:42:49.900Z,97589.59
2023-07-24T01:43:51.331Z,97584.19
2023-07-24T01:44:54.435Z,97588.03
2023-07-24T01:45:56.026Z,97588.41
2023-07-24T01:46:57.459Z,97587.25
2023-07-24T01:47:59.213Z,97599.13
2023-07-24T01:49:02.347Z,97597.97
2023-07-24T01:50:03.957Z,97597.59
2023-07-24T01:51:05.316Z,97590.69
2023-07-24T01:52:07.004Z,97587.22
2023-07-24T01:53:08.388Z,97592.19
2023-07-24T01:54:09.750Z,97592.97
2023-07-24T01:55:11.086Z,97588.03
2023-07-24T01:56:12.501Z,97594.16
2023-07-24T01:57:13.904Z,97594.19
2023-07-24T01:58:15.301Z,97596.88
2023-07-24T01:59:16.686Z,97596.91
2023-07-24T02:00:18.100Z,97599.56
2023-07-24T02:01:19.482Z,97593.03
2023-07-24T02:02:20.948Z,97590.72
2023-07-24T02:03:22.449Z,97589.56
2023-07-24T02:04:23.886Z,97589.16
2023-07-24T02:05:25.437Z,97588.78
2023-07-24T02:06:27.010Z,97591.47
2023-07-24T02:07:28.567Z,97593.41
2023-07-24T02:08:29.917Z,97584.56
2023-07-24T02:09:31.321Z,97588.06
2023-07-24T02:10:32.711Z,97589.59
2023-07-24T02:11:34.110Z,97591.84
2023-07-24T02:12:35.476Z,97590.31
2023-07-24T02:13:37.293Z,97589.56
2023-07-24T02:14:38.655Z,97585.38
2023-07-24T02:15:40.029Z,97587.28
2023-07-24T02:16:41.424Z,97584.63
2023-07-24T02:17:42.822Z,97583.88
2023-07-24T02:18:44.665Z,97586.94
2023-07-24T02:19:46.260Z,97588.81
2023-07-24T02:20:51.331Z,97580.38
2023-07-24T02:21:52.694Z,97580.78
2023-07-24T02:22:54.090Z,97575.03
2023-07-24T02:23:55.471Z,97578.13
2023-07-24T02:24:56.824Z,97586.19
2023-07-24T02:25:58.960Z,97581.63
2023-07-24T02:27:02.102Z,97576.25
2023-07-24T02:28:06.295Z,97574.34
2023-07-24T02:29:07.648Z,97578.16
2023-07-24T02:30:09.473Z,97581.97
2023-07-24T02:31:10.884Z,97575.50
2023-07-24T02:32:12.249Z,97575.91
2023-07-24T02:33:13.826Z,97573.97
2023-07-24T02:34:16.865Z,97576.69
2023-07-24T02:35:18.235Z,97575.16
2023-07-24T02:36:21.347Z,97581.69
2023-07-24T02:37:22.716Z,97580.97
2023-07-24T02:38:27.088Z,97585.91
2023-07-24T02:39:28.625Z,97584.78
2023-07-24T02:40:29.997Z,97582.84
2023-07-24T02:41:31.345Z,97577.06
2023-07-24T02:42:32.767Z,97572.13
2023-07-24T02:43:34.151Z,97575.56
2023-07-24T02:44:36.955Z,97565.97
2023-07-24T02:45:38.854Z,97564.44
2023-07-24T02:46:40.242Z,97560.66
2023-07-24T02:47:41.648Z,97559.88
2023-07-24T02:48:43.033Z,97558.00
2023-07-24T02:49:44.421Z,97558.75
2023-07-24T02:50:48.624Z,97556.81
2023-07-24T02:51:49.949Z,97549.53
2023-07-24T02:52:51.309Z,97551.84
2023-07-24T02:53:55.191Z,97553.00
2023-07-24T02:54:56.613Z,97558.00
2023-07-24T02:55:58.021Z,97545.72
2023-07-24T02:56:59.417Z,97553.78
2023-07-24T02:58:00.804Z,97558.38
2023-07-24T02:59:02.177Z,97560.69
2023-07-24T03:00:04.000Z,97557.97
2023-07-24T03:01:06.807Z,97558.00
2023-07-24T03:02:08.252Z,97554.50
2023-07-24T03:03:09.758Z,97544.16
2023-07-24T03:04:11.374Z,97545.28
2023-07-24T03:05:12.775Z,97548.75
2023-07-24T03:06:14.558Z,97551.41
2023-07-24T03:07:15.909Z,97557.13
2023-07-24T03:08:17.405Z,97552.13
2023-07-24T03:09:18.907Z,97547.09
2023-07-24T03:10:20.264Z,97540.16
2023-07-24T03:11:21.590Z,97542.09
2023-07-24T03:12:22.966Z,97534.03
2023-07-24T03:13:24.367Z,97534.03
2023-07-24T03:14:25.793Z,97533.28
2023-07-24T03:15:27.138Z,97535.91
2023-07-24T03:16:28.645Z,97537.81
2023-07-24T03:17:30.250Z,97531.69
2023-07-24T03:18:31.631Z,97530.91
2023-07-24T03:19:33.021Z,97527.88
2023-07-24T03:20:34.416Z,97519.44
2023-07-24T03:21:35.823Z,97519.84
2023-07-24T03:22:37.199Z,97532.47
2023-07-24T03:23:38.539Z,97527.91
2023-07-24T03:24:39.970Z,97523.66
2023-07-24T03:25:41.458Z,97528.63
2023-07-24T03:26:42.793Z,97519.06
2023-07-24T03:27:44.135Z,97521.34
2023-07-24T03:28:45.457Z,97515.59
2023-07-24T03:29:46.819Z,97518.28
2023-07-24T03:30:49.322Z,97519.41
2023-07-24T03:31:50.799Z,97526.69
2023-07-24T03:32:52.289Z,97540.13
2023-07-24T03:33:53.674Z,97546.59
2023-07-24T03:34:55.191Z,97543.53
2023-07-24T03:35:56.538Z,97543.16
2023-07-24T03:37:00.079Z,97543.16
2023-07-24T03:38:01.517Z,97532.41
2023-07-24T03:39:03.333Z,97538.19
2023-07-24T03:40:05.184Z,97542.03
2023-07-24T03:41:06.545Z,97538.56
2023-07-24T03:42:11.033Z,97537.44
2023-07-24T03:43:12.395Z,97535.88
2023-07-24T03:44:13.750Z,97527.44
2023-07-24T03:45:15.182Z,97528.59
2023-07-24T03:46:16.588Z,97530.47
2023-07-24T03:47:18.004Z,97523.56
2023-07-24T03:48:19.375Z,97521.63
2023-07-24T03:49:20.710Z,97527.00
2023-07-24T03:50:22.072Z,97523.53
2023-07-24T03:51:23.409Z,97528.09
2023-07-24T03:52:24.791Z,97531.91
2023-07-24T03:53:26.225Z,97517.34
2023-07-24T03:54:27.572Z,97519.69
2023-07-24T03:55:29.002Z,97510.50
2023-07-24T03:56:30.631Z,97517.38
2023-07-24T03:57:32.219Z,97515.13
2023-07-24T03:58:33.601Z,97517.41
2023-07-24T03:59:34.998Z,97522.78
2023-07-24T04:00:36.394Z,97515.53
2023-07-24T04:01:37.789Z,97523.19
2023-07-24T04:02:39.431Z,97530.84
2023-07-24T04:03:40.826Z,97525.91
2023-07-24T04:04:42.272Z,97532.41
2023-07-24T04:05:43.675Z,97533.59
2023-07-24T04:06:46.597Z,97537.81
2023-07-24T04:07:47.988Z,97531.72
2023-07-24T04:08:49.323Z,97532.88
2023-07-24T04:09:50.672Z,97534.44
2023-07-24T04:10:52.016Z,97531.78
2023-07-24T04:11:53.451Z,97540.22
2023-07-24T04:12:54.929Z,97549.44
2023-07-24T04:13:56.272Z,97548.69
2023-07-24T04:14:57.632Z,97545.66
2023-07-24T04:15:58.956Z,97541.06
2023-07-24T04:17:00.346Z,97533.78
2023-07-24T04:18:01.824Z,97525.75
2023-07-24T04:19:03.547Z,97508.53
2023-07-24T04:20:05.781Z,97506.22
2023-07-24T04:21:07.131Z,97505.84
2023-07-24T04:22:08.490Z,97495.50
2023-07-24T04:23:09.831Z,97501.25
2023-07-24T04:24:11.184Z,97494.75
2023-07-24T04:25:12.541Z,97495.13
2023-07-24T04:26:13.857Z,97499.00
2023-07-24T04:27:15.216Z,97492.88
2023-07-24T04:28:16.857Z,97506.66
2023-07-24T04:29:18.200Z,97501.31
2023-07-24T04:30:19.624Z,97498.25
2023-07-24T04:31:21.130Z,97502.47
2023-07-24T04:32:22.665Z,97503.22
2023-07-24T04:33:24.039Z,97494.81
2023-07-24T04:34:25.400Z,97499.78
2023-07-24T04:35:28.086Z,97495.56
2023-07-24T04:36:29.655Z,97497.09
2023-07-24T04:37:31.998Z,97495.19
2023-07-24T04:38:33.316Z,97495.94
2023-07-24T04:39:34.673Z,97496.34
2023-07-24T04:40:36.022Z,97504.81
2023-07-24T04:41:37.372Z,97509.47
2023-07-24T04:42:38.732Z,97504.44
2023-07-24T04:43:40.086Z,97500.53
2023-07-24T04:44:41.424Z,97501.28
2023-07-24T04:45:42.770Z,97498.13
2023-07-24T04:46:44.158Z,97506.09
2023-07-24T04:47:45.537Z,97499.88
2023-07-24T04:48:46.985Z,97497.16
2023-07-24T04:49:48.348Z,97497.94
2023-07-24T04:50:56.587Z,97489.50
2023-07-24T04:51:57.981Z,97488.84
2023-07-24T04:52:59.505Z,97486.59
2023-07-24T04:54:00.854Z,97488.56
2023-07-24T04:55:02.252Z,97477.06
2023-07-24T04:56:03.653Z,97485.50
2023-07-24T04:57:05.348Z,97474.38
2023-07-24T04:58:06.687Z,97479.00
2023-07-24T04:59:08.027Z,97472.50
2023-07-24T05:00:10.096Z,97472.88
2023-07-24T05:01:11.457Z,97477.50
2023-07-24T05:02:12.910Z,97474.81
2023-07-24T05:03:14.415Z,97473.28
2023-07-24T05:04:15.813Z,97475.97
2023-07-24T05:05:17.281Z,97481.00
2023-07-24T05:06:18.625Z,97465.25
2023-07-24T05:07:19.988Z,97474.47
2023-07-24T05:08:21.330Z,97470.25
2023-07-24T05:09:22.685Z,97467.19
2023-07-24T05:10:24.250Z,97467.19
2023-07-24T05:11:25.636Z,97466.03
2023-07-24T05:12:27.216Z,97470.28
2023-07-24T05:13:28.583Z,97475.25
2023-07-24T05:14:30.299Z,97478.31
2023-07-24T05:15:31.685Z,97475.28
2023-07-24T05:16:33.457Z,97477.19
2023-07-24T05:17:35.168Z,97474.88
2023-07-24T05:18:38.005Z,97466.81
2023-07-24T05:19:40.662Z,97468.34
2023-07-24T05:20:49.692Z,97465.66
2023-07-24T05:21:51.086Z,97470.66
2023-07-24T05:22:52.406Z,97469.13
2023-07-24T05:23:53.762Z,97464.91
2023-07-24T05:24:55.554Z,97466.44
2023-07-24T05:25:58.465Z,97459.13
2023-07-24T05:26:59.813Z,97466.44
2023-07-24T05:28:01.366Z,97463.72
2023-07-24T05:29:02.731Z,97461.41
2023-07-24T05:30:04.879Z,97471.78
2023-07-24T05:31:06.490Z,97472.94
2023-07-24T05:32:08.263Z,97480.63
2023-07-24T05:33:12.376Z,97488.69
2023-07-24T05:34:16.548Z,97499.44
2023-07-24T05:35:17.905Z,97498.28
2023-07-24T05:36:19.320Z,97499.81
2023-07-24T05:37:20.684Z,97494.84
2023-07-24T05:38:22.002Z,97491.75
2023-07-24T05:39:23.341Z,97496.38
2023-07-24T05:40:24.705Z,97499.44
2023-07-24T05:41:26.238Z,97496.38
2023-07-24T05:42:27.677Z,97502.91
2023-07-24T05:43:30.370Z,97506.00
2023-07-24T05:44:31.740Z,97506.75
2023-07-24T05:45:33.146Z,97512.91
2023-07-24T05:46:34.674Z,97505.19
2023-07-24T05:47:36.189Z,97498.28
2023-07-24T05:48:37.559Z,97506.38
2023-07-24T05:49:40.875Z,97508.28
2023-07-24T05:50:43.956Z,97514.81
2023-07-24T05:51:45.282Z,97512.50
2023-07-24T05:52:46.710Z,97514.81
2023-07-24T05:53:48.076Z,97523.66
2023-07-24T05:54:49.445Z,97526.34
2023-07-24T05:55:58.722Z,97524.44
2023-07-24T05:57:00.103Z,97522.88
2023-07-24T05:58:01.498Z,97532.50
2023-07-24T05:59:02.830Z,97520.19
2023-07-24T06:00:05.278Z,97525.97
2023-07-24T06:01:12.743Z,97523.28
2023-07-24T06:02:14.095Z,97524.03
2023-07-24T06:03:15.770Z,97530.94
2023-07-24T06:04:17.286Z,97525.16
2023-07-24T06:05:18.794Z,97530.19
2023-07-24T06:06:20.148Z,97532.47
2023-07-24T06:07:21.517Z,97526.69
2023-07-24T06:08:32.635Z,97530.56
2023-07-24T06:09:34.375Z,97532.44
2023-07-24T06:10:35.885Z,97519.75
2023-07-24T06:11:37.250Z,97527.03
2023-07-24T06:12:38.938Z,97520.13
2023-07-24T06:13:40.358Z,97518.56
2023-07-24T06:14:41.818Z,97515.50
2023-07-24T06:15:43.275Z,97504.34
2023-07-24T06:16:44.745Z,97502.00
2023-07-24T06:17:46.217Z,97506.25
2023-07-24T06:18:47.593Z,97500.47
2023-07-24T06:19:48.975Z,97500.50
2023-07-24T06:20:53.851Z,97502.03
2023-07-24T06:21:55.201Z,97502.78
2023-07-24T06:22:56.554Z,97508.53
2023-07-24T06:23:57.943Z,97511.59
2023-07-24T06:24:59.471Z,97504.66
2023-07-24T06:26:00.832Z,97513.13
2023-07-24T06:27:02.222Z,97502.75
2023-07-24T06:28:03.698Z,97506.97
2023-07-24T06:29:05.137Z,97505.38
2023-07-24T06:30:15.031Z,97503.84
2023-07-24T06:31:17.478Z,97516.91
2023-07-24T06:32:18.928Z,97509.22
2023-07-24T06:33:20.399Z,97497.28
2023-07-24T06:34:24.415Z,97499.94
2023-07-24T06:35:25.879Z,97501.13
2023-07-24T06:36:27.317Z,97500.34
2023-07-24T06:37:28.783Z,97494.94
2023-07-24T06:38:30.152Z,97486.88
2023-07-24T06:39:31.625Z,97483.75
2023-07-24T06:40:33.111Z,97481.00
2023-07-24T06:41:34.557Z,97480.22
2023-07-24T06:42:36.833Z,97479.06
2023-07-24T06:43:38.349Z,97477.88
2023-07-24T06:44:39.834Z,97481.75
2023-07-24T06:45:41.338Z,97475.94
2023-07-24T06:46:42.732Z,97482.09
2023-07-24T06:47:44.099Z,97482.84
2023-07-24T06:48:45.454Z,97485.47
2023-07-24T06:49:49.288Z,97472.06
2023-07-24T06:50:50.688Z,97473.97
2023-07-24T06:51:52.071Z,97477.81
2023-07-24T06:52:53.441Z,97472.81
2023-07-24T06:53:54.801Z,97476.97
2023-07-24T06:54:56.148Z,97479.66
2023-07-24T06:55:57.499Z,97477.69
2023-07-24T06:56:59.023Z,97475.34
2023-07-24T06:58:00.372Z,97478.06
2023-07-24T06:59:01.688Z,97478.75
2023-07-24T07:00:03.473Z,97486.44
2023-07-24T07:01:08.053Z,97474.84
2023-07-24T07:02:09.455Z,97483.25
2023-07-24T07:03:11.024Z,97467.47
2023-07-24T07:04:12.434Z,97470.16
2023-07-24T07:05:13.819Z,97473.59
2023-07-24T07:07:19.475Z,97469.66
2023-07-24T07:08:20.825Z,97465.34
2023-07-24T07:09:24.304Z,97471.44
2023-07-24T07:10:25.676Z,97465.28
2023-07-24T07:11:27.020Z,97464.13
2023-07-24T07:12:28.404Z,97468.34
2023-07-24T07:13:29.900Z,97462.16
2023-07-24T07:14:31.249Z,97460.56
2023-07-24T07:15:32.649Z,97466.31
2023-07-24T07:16:34.091Z,97470.13
2023-07-24T07:17:35.441Z,97469.69
2023-07-24T07:18:36.804Z,97481.56
2023-07-24T07:19:38.267Z,97482.72
2023-07-24T07:20:39.635Z,97491.56
2023-07-24T07:21:41.031Z,97491.16
2023-07-24T07:22:45.322Z,97498.50
2023-07-24T07:23:47.558Z,97499.63
2023-07-24T07:24:49.856Z,97498.13
2023-07-24T07:25:52.416Z,97501.19
2023-07-24T07:26:53.820Z,97510.88
2023-07-24T07:27:55.202Z,97505.47
2023-07-24T07:28:56.546Z,97503.16
2023-07-24T07:29:57.908Z,97505.53
2023-07-24T07:30:59.357Z,97499.34
2023-07-24T07:32:00.796Z,97508.25
2023-07-24T07:33:02.215Z,97514.03
2023-07-24T07:34:03.603Z,97511.69
2023-07-24T07:35:05.501Z,97515.09
2023-07-24T07:36:06.911Z,97508.16
2023-07-24T07:37:08.710Z,97516.63
2023-07-24T07:38:10.048Z,97520.06
2023-07-24T07:39:11.424Z,97528.47
2023-07-24T07:40:12.867Z,97526.13
2023-07-24T07:41:14.213Z,97526.09
2023-07-24T07:42:18.149Z,97526.50
2023-07-24T07:43:20.244Z,97526.88
2023-07-24T07:44:21.572Z,97532.66
2023-07-24T07:45:24.434Z,97533.78
2023-07-24T07:46:25.787Z,97541.91
2023-07-24T07:47:27.182Z,97543.44
2023-07-24T07:48:28.560Z,97548.88
2023-07-24T07:49:31.340Z,97554.25
2023-07-24T07:50:32.837Z,97555.03
2023-07-24T07:51:34.184Z,97561.66
2023-07-24T07:52:35.582Z,97557.81
2023-07-24T07:53:36.929Z,97554.41
2023-07-24T07:54:38.423Z,97557.47
2023-07-24T07:55:39.833Z,97555.94
2023-07-24T07:56:41.204Z,97558.28
2023-07-24T07:57:42.616Z,97559.41
2023-07-24T07:58:44.014Z,97563.28
2023-07-24T07:59:45.397Z,97572.56
2023-07-24T08:00:46.749Z,97567.91
2023-07-24T08:01:48.137Z,97576.03
2023-07-24T08:02:49.580Z,97581.13
2023-07-24T08:03:51.612Z,97578.06
2023-07-24T08:04:53.072Z,97587.72
2023-07-24T08:05:58.060Z,97583.88
2023-07-24T08:06:59.415Z,97590.03
2023-07-24T08:08:00.784Z,97588.53
2023-07-24T08:09:02.129Z,97598.56
2023-07-24T08:10:04.421Z,97592.00
2023-07-24T08:11:08.856Z,97594.78
2023-07-24T08:12:10.222Z,97594.41
2023-07-24T08:13:11.625Z,97592.13
2023-07-24T08:14:13.072Z,97592.13
2023-07-24T08:15:14.426Z,97588.31
2023-07-24T08:16:16.146Z,97600.63
2023-07-24T08:17:17.599Z,97600.28
2023-07-24T08:18:19.175Z,97592.22
2023-07-24T08:19:20.602Z,97593.81
2023-07-24T08:20:21.963Z,97589.97
2023-07-24T08:21:23.283Z,97590.78
2023-07-24T08:22:24.982Z,97588.50
2023-07-24T08:23:26.406Z,97580.06
2023-07-24T08:24:27.816Z,97578.50
2023-07-24T08:25:29.257Z,97574.28
2023-07-24T08:26:30.893Z,97567.78
2023-07-24T08:27:32.401Z,97569.72
2023-07-24T08:28:34.415Z,97565.50
2023-07-24T08:29:35.773Z,97567.81
2023-07-24T08:30:37.343Z,97564.72
2023-07-24T08:31:38.960Z,97562.44
2023-07-24T08:32:40.970Z,97567.84
2023-07-24T08:33:42.377Z,97566.31
2023-07-24T08:34:43.704Z,97555.53
2023-07-24T08:35:45.125Z,97549.44
2023-07-24T08:36:46.600Z,97550.97
2023-07-24T08:37:48.011Z,97546.41
2023-07-24T08:38:49.385Z,97542.53
2023-07-24T08:39:50.894Z,97532.94
2023-07-24T08:41:04.647Z,97522.16
2023-07-24T08:42:13.146Z,97512.22
2023-07-24T08:43:15.179Z,97499.50
2023-07-24T08:44:17.111Z,97496.41
2023-07-24T08:45:18.722Z,97492.94
2023-07-24T08:46:20.638Z,97488.69
2023-07-24T08:47:22.713Z,97488.31
2023-07-24T08:48:24.661Z,97484.44
2023-07-24T08:49:27.044Z,97483.28
2023-07-24T08:50:30.131Z,97470.97
2023-07-24T08:51:32.589Z,97470.91
2023-07-24T08:52:36.433Z,97455.84
2023-07-24T08:53:40.453Z,97450.44
2023-07-24T08:54:41.804Z,97448.47
2023-07-24T08:55:43.372Z,97448.47
2023-07-24T08:56:44.705Z,97449.22
2023-07-24T08:57:46.099Z,97454.56
2023-07-24T08:58:47.449Z,97453.78
2023-07-24T08:59:48.849Z,97456.47
2023-07-24T09:00:50.271Z,97455.28
2023-07-24T09:01:51.751Z,97455.19
2023-07-24T09:02:53.164Z,97456.28
2023-07-24T09:03:54.701Z,97459.69
2023-07-24T09:04:56.089Z,97457.31
2023-07-24T09:05:58.158Z,97466.47
2023-07-24T09:06:59.523Z,97464.84
2023-07-24T09:08:00.879Z,97468.59
2023-07-24T09:09:02.374Z,97458.41
2023-07-24T09:10:04.010Z,97473.00
2023-07-24T09:11:06.674Z,97482.94
2023-07-24T09:12:08.275Z,97484.41
2023-07-24T09:13:13.279Z,97486.66
2023-07-24T09:14:22.488Z,97498.03
2023-07-24T09:15:23.890Z,97503.72
2023-07-24T09:16:26.745Z,97513.22
2023-07-24T09:17:28.469Z,97509.34
2023-07-24T09:19:10.990Z,97522.22
2023-07-24T09:20:12.992Z,97517.41
2023-07-24T09:21:14.334Z,97512.56
2023-07-24T09:22:17.718Z,97507.69
2023-07-24T09:23:28.713Z,97509.34
2023-07-24T09:24:30.156Z,97511.81
2023-07-24T09:25:32.621Z,97515.91
2023-07-24T09:26:34.317Z,97513.88
2023-07-24T09:27:36.057Z,97518.94
2023-07-24T09:28:37.597Z,97513.25
2023-07-24T09:29:38.954Z,97514.28
2023-07-24T09:30:41.271Z,97514.63
2023-07-24T09:31:42.794Z,97512.28
2023-07-24T09:32:44.288Z,97523.81
2023-07-24T09:33:46.212Z,97518.03
2023-07-24T09:34:47.694Z,97525.94
2023-07-24T09:35:58.716Z,97525.88
2023-07-24T09:37:00.140Z,97520.47
2023-07-24T09:38:15.018Z,97510.88
2023-07-24T09:39:23.873Z,97512.06
2023-07-24T09:40:25.510Z,97510.53
2023-07-24T09:41:32.130Z,97504.63
2023-07-24T09:42:52.961Z,97512.31
2023-07-24T09:43:59.885Z,97508.53
2023-07-24T09:45:05.626Z,97504.91
2023-07-24T09:46:11.376Z,97504.09
2023-07-24T09:47:32.180Z,97499.00
2023-07-24T09:48:40.747Z,97502.53
2023-07-24T09:49:43.590Z,97501.28
2023-07-24T09:50:47.401Z,97509.56
2023-07-24T09:51:53.330Z,97509.34
2023-07-24T09:52:56.182Z,97510.81
2023-07-24T09:54:06.947Z,97512.81
2023-07-24T09:55:24.443Z,97516.66
2023-07-24T09:56:35.167Z,97511.84
2023-07-24T09:57:45.087Z,97518.34
2023-07-24T09:58:48.008Z,97513.88
2023-07-24T09:59:50.574Z,97525.88
2023-07-24T10:00:53.022Z,97517.63
2023-07-24T10:01:55.167Z,97522.75
2023-07-24T10:02:57.026Z,97529.13
2023-07-24T10:03:59.192Z,97532.22
2023-07-24T10:05:01.625Z,97532.97
2023-07-24T10:06:03.888Z,97527.72
2023-07-24T10:07:06.886Z,97533.59
2023-07-24T10:08:08.341Z,97535.25
2023-07-24T10:09:09.902Z,97537.25
2023-07-24T10:10:11.657Z,97540.72
2023-07-24T10:11:14.507Z,97536.00
2023-07-24T10:12:16.118Z,97541.13
2023-07-24T10:13:19.079Z,97544.34
2023-07-24T10:14:20.757Z,97546.78
2023-07-24T10:15:22.348Z,97550.75
2023-07-24T10:16:23.802Z,97548.03
2023-07-24T10:17:35.418Z,97541.16
2023-07-24T10:18:44.924Z,97548.91
2023-07-24T10:19:46.282Z,97550.84
2023-07-24T10:20:47.702Z,97559.47
2023-07-24T10:21:50.265Z,97566.09
2023-07-24T10:22:51.665Z,97568.00
2023-07-24T10:23:53.107Z,97568.47
2023-07-24T10:24:56.426Z,97574.66
2023-07-24T10:26:04.073Z,97570.38
2023-07-24T10:27:05.877Z,97566.16
2023-07-24T10:28:09.745Z,97574.69
2023-07-24T10:29:13.131Z,97572.03
2023-07-24T10:30:28.255Z,97573.97
2023-07-24T10:31:34.737Z,97568.22
2023-07-24T10:32:46.841Z,97565.88
2023-07-24T10:33:48.955Z,97564.81
2023-07-24T10:35:12.323Z,97560.19
2023-07-24T10:36:18.484Z,97557.50
2023-07-24T10:37:19.840Z,97552.53
2023-07-24T10:38:35.676Z,97561.09
2023-07-24T10:39:42.128Z,97558.44
2023-07-24T10:40:45.446Z,97564.66
2023-07-24T10:41:47.413Z,97575.47
2023-07-24T10:43:00.437Z,97573.94
2023-07-24T10:44:01.888Z,97572.41
2023-07-24T10:45:12.479Z,97580.97
2023-07-24T10:46:15.824Z,97578.63
2023-07-24T10:47:17.234Z,97579.06
2023-07-24T10:48:20.247Z,97573.69
2023-07-24T10:49:23.002Z,97561.00
2023-07-24T10:50:24.536Z,97562.22
2023-07-24T10:51:26.011Z,97567.66
2023-07-24T10:52:34.414Z,97572.00
2023-07-24T10:53:37.131Z,97570.09
2023-07-24T10:54:38.471Z,97567.81
2023-07-24T10:55:39.861Z,97574.72
2023-07-24T10:56:41.299Z,97577.47
2023-07-24T10:57:42.847Z,97575.94
2023-07-24T10:58:44.350Z,97585.59
2023-07-24T10:59:45.691Z,97584.44
2023-07-24T11:00:47.505Z,97589.16
2023-07-24T11:01:49.084Z,97584.19
2023-07-24T11:02:53.218Z,97583.03
2023-07-24T11:03:55.344Z,97583.84
2023-07-24T11:05:00.051Z,97584.63
2023-07-24T11:06:03.624Z,97589.25
2023-07-24T11:07:05.319Z,97575.81
2023-07-24T11:08:14.560Z,97572.34
2023-07-24T11:09:16.095Z,97565.81
2023-07-24T11:10:20.420Z,97567.38
2023-07-24T11:11:28.865Z,97567.41
2023-07-24T11:12:32.795Z,97555.88
2023-07-24T11:13:54.429Z,97546.28
2023-07-24T11:14:55.777Z,97539.28
2023-07-24T11:15:57.436Z,97531.22
2023-07-24T11:16:58.881Z,97525.13
2023-07-24T11:18:03.509Z,97512.75
2023-07-24T11:19:06.962Z,97516.22
2023-07-24T11:20:10.878Z,97504.31
2023-07-24T11:21:13.068Z,97507.03
2023-07-24T11:22:15.095Z,97505.84
2023-07-24T11:23:17.178Z,97501.28
2023-07-24T11:24:18.747Z,97499.75
2023-07-24T11:25:20.201Z,97492.44
2023-07-24T11:26:23.165Z,97495.50
2023-07-24T11:27:26.048Z,97495.13
2023-07-24T11:28:27.400Z,97486.28
2023-07-24T11:29:31.251Z,97484.38
2023-07-24T11:30:32.647Z,97470.16
2023-07-24T11:31:38.506Z,97452.41
2023-07-24T11:32:41.102Z,97446.63
2023-07-24T11:33:44.182Z,97445.88
2023-07-24T11:34:46.567Z,97445.84
2023-07-24T11:35:48.705Z,97445.81
2023-07-24T11:36:50.643Z,97436.22
2023-07-24T11:37:52.111Z,97430.44
2023-07-24T11:38:53.474Z,97424.66
2023-07-24T11:40:02.938Z,97405.34
2023-07-24T11:41:04.531Z,97400.72
2023-07-24T11:42:06.410Z,97405.34
2023-07-24T11:43:24.731Z,97416.47
2023-07-24T11:44:28.112Z,97436.09
2023-07-24T11:45:30.737Z,97453.41
2023-07-24T11:46:33.168Z,97466.88
2023-07-24T11:47:47.629Z,97463.41
2023-07-24T11:48:49.464Z,97454.03
2023-07-24T11:50:03.298Z,97451.19
2023-07-24T11:51:04.726Z,97454.50
2023-07-24T11:52:07.598Z,97452.13
2023-07-24T11:53:29.366Z,97465.50
2023-07-24T11:54:30.769Z,97459.19
2023-07-24T11:55:33.193Z,97462.09
2023-07-24T11:56:34.598Z,97466.25
2023-07-24T11:57:36.298Z,97454.19
2023-07-24T11:58:37.676Z,97463.03
2023-07-24T11:59:39.040Z,97462.19
2023-07-24T12:00:40.422Z,97468.75
2023-07-24T12:01:46.344Z,97461.41
2023-07-24T12:02:47.976Z,97463.81
2023-07-24T12:03:49.558Z,97465.78
2023-07-24T12:04:58.068Z,97470.09
2023-07-24T12:05:59.480Z,97479.34
2023-07-24T12:07:01.118Z,97476.41
2023-07-24T12:08:04.701Z,97488.47
2023-07-24T12:09:06.696Z,97491.25
2023-07-24T12:10:08.232Z,97485.56
2023-07-24T12:11:17.537Z,97489.47
2023-07-24T12:12:21.872Z,97487.66
2023-07-24T12:13:23.270Z,97495.81
2023-07-24T12:14:32.230Z,97491.97
2023-07-24T12:15:34.668Z,97492.47
2023-07-24T12:16:37.484Z,97489.06
2023-07-24T12:17:39.255Z,97492.53